Time;durP1;ratioP1;P1;durP2;ratioP2;P2;SDS_P1;SDS_P2;PMS_P1;PMS_P2;Temp;Humidity;BMP_temperature;BMP_pressure;BME280_temperature;BME280_humidity;BME280_pressure;Samples;Min_cycle;Max_cycle;Signal;HPM_P1;HPM_P2
2021/12/15 00:02:11;;;;;;;463.42;121.30;;;0.80;99.90;;;;;;5032782;28;20018;-77
2021/12/15 00:04:37;;;;;;;425.45;124.28;;;0.80;99.90;;;;;;5032695;28;20018;-77
2021/12/15 00:07:03;;;;;;;490.90;118.80;;;0.80;99.90;;;;;;5032694;28;20372;-77
2021/12/15 00:09:29;;;;;;;401.58;119.88;;;0.80;99.90;;;;;;5032604;28;20112;-77
2021/12/15 00:11:55;;;;;;;469.70;126.15;;;0.80;99.90;;;;;;5032650;28;20066;-78
2021/12/15 00:14:21;;;;;;;376.73;106.60;;;0.80;99.90;;;;;;5032522;28;20029;-77
2021/12/15 00:16:49;;;;;;;395.52;109.18;;;0.80;99.90;;;;;;5032476;28;20033;-77
2021/12/15 00:19:15;;;;;;;326.23;99.25;;;0.90;99.90;;;;;;5032400;28;20025;-77
2021/12/15 00:21:40;;;;;;;487.77;128.05;;;0.90;99.90;;;;;;5032420;28;20505;-77
2021/12/15 00:24:08;;;;;;;386.63;108.20;;;0.80;99.90;;;;;;5031105;28;20029;-77
2021/12/15 00:26:34;;;;;;;807.55;175.50;;;0.80;99.90;;;;;;5031124;28;20018;-78
2021/12/15 00:29:02;;;;;;;782.45;168.50;;;0.80;99.90;;;;;;5031055;28;20029;-77
2021/12/15 00:31:30;;;;;;;566.25;129.40;;;0.80;99.90;;;;;;5030901;28;20013;-77
2021/12/15 00:33:56;;;;;;;252.88;92.15;;;0.80;99.90;;;;;;5030969;28;20436;-77
2021/12/15 00:36:22;;;;;;;338.92;107.05;;;0.80;99.90;;;;;;5030860;28;20041;-77
2021/12/15 00:38:48;;;;;;;359.65;107.78;;;0.80;99.90;;;;;;5032228;28;20443;-77
2021/12/15 00:41:14;;;;;;;483.65;132.73;;;0.80;99.90;;;;;;5030892;28;20030;-76
2021/12/15 00:43:39;;;;;;;620.72;151.98;;;0.80;99.90;;;;;;5032108;28;20044;-77
2021/12/15 00:46:06;;;;;;;341.80;109.93;;;0.80;99.90;;;;;;5032062;28;20031;-77
2021/12/15 00:48:34;;;;;;;574.13;145.75;;;0.80;99.90;;;;;;5032280;28;20049;-77
2021/12/15 00:51:00;;;;;;;540.15;131.35;;;0.80;99.90;;;;;;5031923;28;20112;-77
2021/12/15 00:53:25;;;;;;;533.65;134.38;;;0.80;99.90;;;;;;5031840;28;20022;-77
2021/12/15 00:55:51;;;;;;;292.45;93.57;;;0.80;99.90;;;;;;5031913;28;20037;-77
2021/12/15 00:58:17;;;;;;;373.83;103.78;;;0.80;99.90;;;;;;5031868;28;20033;-77
2021/12/15 01:00:56;;;;;;;263.75;92.60;;;0.80;99.90;;;;;;5030523;28;20025;-77
2021/12/15 01:03:22;;;;;;;404.60;110.68;;;0.80;99.90;;;;;;5030590;28;20029;-78
2021/12/15 01:05:51;;;;;;;277.80;83.03;;;0.80;99.90;;;;;;5030486;28;20578;-77
2021/12/15 01:08:24;;;;;;;434.58;116.25;;;0.80;99.90;;;;;;5030462;28;20017;-77
2021/12/15 01:11:12;;;;;;;514.10;134.35;;;0.80;99.90;;;;;;5031799;28;20072;-77
2021/12/15 01:22:04;;;;;;;464.83;116.57;;;0.80;99.90;;;;;;5031592;28;20036;-77
2021/12/15 01:24:30;;;;;;;534.95;121.60;;;0.80;99.90;;;;;;5031480;28;20025;-77
2021/12/15 01:26:56;;;;;;;533.35;124.93;;;0.80;99.90;;;;;;5031535;28;20539;-77
2021/12/15 01:29:22;;;;;;;593.00;133.30;;;0.80;99.90;;;;;;5031362;28;20104;-77
2021/12/15 01:31:48;;;;;;;560.60;141.05;;;0.70;99.90;;;;;;5031356;28;20022;-77
2021/12/15 01:34:14;;;;;;;481.00;113.88;;;0.70;99.90;;;;;;5031257;28;20029;-77
2021/12/15 01:36:39;;;;;;;408.55;112.65;;;0.70;99.90;;;;;;5031259;28;20112;-77
2021/12/15 01:39:06;;;;;;;478.80;118.15;;;0.70;99.90;;;;;;5031262;28;20033;-77
2021/12/15 01:41:32;;;;;;;462.08;117.05;;;0.70;99.90;;;;;;5029260;28;20014;-77
2021/12/15 01:46:55;;;;;;;310.02;94.15;;;0.70;99.90;;;;;;5031227;28;20380;-77
2021/12/15 01:49:29;;;;;;;476.45;117.20;;;0.70;99.90;;;;;;5031102;28;20021;-77
2021/12/15 01:51:58;;;;;;;446.45;110.55;;;0.70;99.90;;;;;;5029883;28;20022;-77
2021/12/15 01:54:25;;;;;;;501.33;114.90;;;0.70;99.90;;;;;;5029734;28;20021;-77
2021/12/15 01:56:51;;;;;;;365.90;99.97;;;0.70;99.90;;;;;;5029557;28;20068;-77
2021/12/15 01:59:20;;;;;;;730.35;155.38;;;0.70;99.90;;;;;;5029648;28;20045;-77
2021/12/15 02:01:47;;;;;;;544.92;139.45;;;0.70;99.90;;;;;;5029642;28;20475;-78
2021/12/15 02:04:16;;;;;;;391.15;101.45;;;0.70;99.90;;;;;;5030858;28;20018;-77
2021/12/15 02:06:44;;;;;;;394.08;106.00;;;0.70;99.90;;;;;;5029606;28;20033;-77
2021/12/15 02:09:12;;;;;;;461.88;119.07;;;0.70;99.90;;;;;;5029502;28;20058;-77
2021/12/15 02:11:38;;;;;;;501.95;115.07;;;0.70;99.90;;;;;;5030771;28;20021;-77
2021/12/15 02:14:04;;;;;;;514.83;118.30;;;0.70;99.90;;;;;;5029423;28;20496;-77
2021/12/15 02:16:30;;;;;;;476.45;122.80;;;0.70;99.90;;;;;;5029307;28;20386;-77
2021/12/15 02:18:56;;;;;;;522.40;127.38;;;0.70;99.90;;;;;;5030633;28;20024;-77
2021/12/15 02:21:24;;;;;;;528.40;120.32;;;0.70;99.90;;;;;;5029366;28;20029;-77
2021/12/15 02:23:56;;;;;;;514.55;126.90;;;0.70;99.90;;;;;;5029328;28;20044;-77
2021/12/15 02:26:33;;;;;;;554.00;138.65;;;0.70;99.90;;;;;;5029561;28;20034;-77
2021/12/15 02:29:00;;;;;;;421.27;112.25;;;0.70;99.90;;;;;;5030570;28;20022;-77
2021/12/15 02:37:17;;;;;;;682.75;166.52;;;0.70;99.90;;;;;;5019728;28;20039;-77
2021/12/15 02:39:51;;;;;;;318.30;98.10;;;0.60;99.90;;;;;;5030441;28;20089;-77
2021/12/15 02:42:19;;;;;;;438.60;117.95;;;0.70;99.90;;;;;;5029054;28;20025;-77
2021/12/15 02:44:45;;;;;;;507.70;121.93;;;0.70;99.90;;;;;;5028886;28;20494;-77
2021/12/15 02:47:17;;;;;;;504.08;123.70;;;0.70;99.90;;;;;;5029057;28;20021;-77
2021/12/15 02:49:44;;;;;;;344.27;107.72;;;0.70;99.90;;;;;;5028965;28;20025;-77
2021/12/15 02:52:10;;;;;;;618.53;154.98;;;0.70;99.90;;;;;;5028934;28;20022;-77
2021/12/15 02:54:36;;;;;;;648.10;161.10;;;0.70;99.90;;;;;;5027688;28;20033;-77
2021/12/15 02:57:06;;;;;;;452.50;125.85;;;0.70;99.90;;;;;;5028812;28;20074;-77
2021/12/15 02:59:51;;;;;;;462.73;121.18;;;0.80;99.90;;;;;;5028789;28;20034;-77
2021/12/15 03:05:03;;;;;;;364.52;103.60;;;0.80;99.90;;;;;;5030288;28;20025;-77
2021/12/15 03:07:37;;;;;;;;;;;0.80;99.90;;;;;;5030740;28;20049;-77
2021/12/15 03:15:35;;;;;;;662.70;151.40;;;0.80;99.90;;;;;;5030174;28;20116;-77
2021/12/15 03:18:11;;;;;;;528.70;130.88;;;0.80;99.90;;;;;;5029845;28;20042;-77
2021/12/15 03:20:48;;;;;;;421.23;116.38;;;0.80;99.90;;;;;;5028553;28;20419;-77
2021/12/15 03:23:19;;;;;;;585.05;153.77;;;0.80;99.90;;;;;;5029845;28;20053;-77
2021/12/15 03:25:45;;;;;;;442.63;122.50;;;0.80;99.90;;;;;;5029781;28;20032;-77
2021/12/15 03:36:14;;;;;;;368.67;108.45;;;0.90;99.90;;;;;;5029618;28;20104;-77
2021/12/15 03:38:41;;;;;;;311.00;96.57;;;0.80;99.90;;;;;;5028357;28;20029;-77
2021/12/15 03:41:09;;;;;;;439.77;118.38;;;0.90;99.90;;;;;;5029486;28;20478;-77
2021/12/15 03:43:36;;;;;;;410.38;111.97;;;0.90;99.90;;;;;;5028205;28;20093;-77
2021/12/15 03:46:08;;;;;;;277.92;94.65;;;0.90;99.90;;;;;;5028307;28;20029;-77
2021/12/15 03:48:36;;;;;;;323.60;102.57;;;0.90;99.90;;;;;;5029575;28;20061;-77
2021/12/15 03:51:03;;;;;;;306.02;98.68;;;0.90;99.90;;;;;;5028253;28;20018;-77
2021/12/15 03:53:29;;;;;;;347.67;101.03;;;0.80;99.90;;;;;;5029405;28;20071;-77
2021/12/15 03:55:56;;;;;;;417.55;115.72;;;0.90;99.90;;;;;;5029371;28;20025;-78
2021/12/15 03:58:24;;;;;;;510.70;134.55;;;0.90;99.90;;;;;;5029276;28;20037;-77
2021/12/15 04:00:57;;;;;;;327.13;102.57;;;0.90;99.90;;;;;;5028050;28;20053;-77
2021/12/15 04:03:27;;;;;;;506.05;126.78;;;0.90;99.90;;;;;;5028083;28;20460;-77
2021/12/15 04:05:56;;;;;;;554.38;144.02;;;0.90;99.90;;;;;;5030505;28;20017;-77
2021/12/15 04:08:22;;;;;;;286.88;95.57;;;0.90;99.90;;;;;;5032727;28;20025;-77
2021/12/15 04:10:48;;;;;;;512.60;130.00;;;0.90;99.90;;;;;;5031342;28;20481;-77
2021/12/15 04:13:14;;;;;;;370.05;109.60;;;0.90;99.90;;;;;;5032619;28;20026;-77
2021/12/15 04:15:52;;;;;;;408.77;113.53;;;0.90;99.90;;;;;;5031255;28;20033;-77
2021/12/15 04:18:18;;;;;;;259.52;89.28;;;0.90;99.90;;;;;;5032590;28;20421;-77
2021/12/15 04:20:44;;;;;;;475.73;119.78;;;0.90;99.90;;;;;;5032471;28;20021;-77
2021/12/15 04:23:11;;;;;;;607.28;142.32;;;0.90;99.90;;;;;;5031197;28;20117;-78
2021/12/15 04:25:40;;;;;;;524.47;123.05;;;0.90;99.90;;;;;;5032336;28;20030;-78
2021/12/15 04:28:23;;;;;;;295.60;90.68;;;0.90;99.90;;;;;;5031145;28;20078;-77
2021/12/15 04:30:53;;;;;;;485.55;113.03;;;0.80;99.90;;;;;;5032389;28;20017;-77
2021/12/15 04:33:25;;;;;;;403.38;109.97;;;0.80;99.90;;;;;;5032255;28;20022;-77
2021/12/15 04:35:54;;;;;;;501.65;117.57;;;0.80;99.90;;;;;;5030889;28;20021;-77
2021/12/15 04:38:22;;;;;;;304.50;91.07;;;0.70;99.90;;;;;;5030932;28;20101;-77
2021/12/15 04:40:48;;;;;;;503.80;119.25;;;0.70;99.90;;;;;;5030588;28;20022;-77
2021/12/15 04:43:13;;;;;;;588.00;135.20;;;0.70;99.90;;;;;;5036916;28;20195;-77
2021/12/15 04:45:39;;;;;;;587.13;142.48;;;0.70;99.90;;;;;;5034310;28;20025;-77
2021/12/15 04:48:06;;;;;;;379.20;102.65;;;0.70;99.90;;;;;;5050714;27;20466;-77
2021/12/15 04:50:33;;;;;;;501.58;121.00;;;0.70;99.90;;;;;;5050564;28;20021;-77
2021/12/15 04:53:02;;;;;;;622.60;136.32;;;0.70;99.90;;;;;;5050705;28;20025;-77
2021/12/15 04:55:30;;;;;;;351.17;96.05;;;0.80;99.90;;;;;;5034278;28;20065;-77
2021/12/15 04:57:57;;;;;;;446.75;113.07;;;0.70;99.90;;;;;;5044161;28;20029;-77
2021/12/15 05:00:26;;;;;;;290.35;91.53;;;0.70;99.90;;;;;;5031807;28;20022;-77
2021/12/15 05:02:53;;;;;;;544.10;125.03;;;0.70;99.90;;;;;;5050433;28;20072;-77
2021/12/15 05:05:21;;;;;;;466.38;108.68;;;0.70;99.90;;;;;;5051697;28;20021;-77
2021/12/15 05:07:47;;;;;;;514.60;123.03;;;0.70;99.90;;;;;;5050287;27;20029;-77
2021/12/15 05:10:12;;;;;;;365.35;101.13;;;0.70;99.90;;;;;;5051543;28;20036;-77
2021/12/15 05:12:39;;;;;;;326.30;91.35;;;0.70;99.90;;;;;;5051659;28;20017;-77
2021/12/15 05:15:06;;;;;;;421.85;101.15;;;0.70;99.90;;;;;;5050277;28;20021;-77
2021/12/15 05:17:32;;;;;;;309.75;93.15;;;0.70;99.90;;;;;;5030085;27;20424;-77
2021/12/15 05:20:02;;;;;;;397.35;104.90;;;0.70;99.90;;;;;;5030320;28;20062;-77
2021/12/15 05:22:28;;;;;;;280.08;83.72;;;0.70;99.90;;;;;;5030305;28;20017;-77
2021/12/15 05:24:54;;;;;;;378.13;98.50;;;0.70;99.90;;;;;;5031513;28;20075;-77
2021/12/15 05:27:20;;;;;;;273.73;95.43;;;0.70;99.90;;;;;;5031497;28;20073;-77
2021/12/15 05:29:47;;;;;;;272.67;84.28;;;0.80;99.90;;;;;;5030112;28;20014;-78
2021/12/15 05:32:18;;;;;;;442.45;110.55;;;0.70;99.90;;;;;;5031387;28;20474;-77
2021/12/15 05:34:46;;;;;;;317.52;93.07;;;0.70;99.90;;;;;;5031363;28;20040;-77
2021/12/15 05:37:12;;;;;;;396.23;94.88;;;0.70;99.90;;;;;;5030003;28;20391;-77
2021/12/15 05:39:45;;;;;;;407.95;102.82;;;0.80;99.90;;;;;;5029938;28;20021;-78
2021/12/15 05:42:10;;;;;;;263.00;86.88;;;0.70;99.90;;;;;;5029823;28;20128;-77
2021/12/15 05:44:38;;;;;;;406.60;115.78;;;0.70;99.90;;;;;;5031082;28;20104;-78
2021/12/15 05:47:05;;;;;;;528.00;130.68;;;0.80;99.90;;;;;;5030833;28;20048;-77
2021/12/15 05:49:31;;;;;;;529.35;120.03;;;0.80;99.90;;;;;;5028689;28;20022;-77
2021/12/15 05:51:58;;;;;;;452.55;110.97;;;0.80;99.90;;;;;;5039064;28;20028;-77
2021/12/15 05:54:24;;;;;;;471.13;117.18;;;0.70;99.90;;;;;;5038388;28;20028;-77
2021/12/15 05:56:49;;;;;;;293.58;94.05;;;0.70;99.90;;;;;;5048668;28;20036;-78
2021/12/15 05:59:15;;;;;;;420.00;106.78;;;0.70;99.90;;;;;;5048278;27;20021;-77
2021/12/15 06:01:41;;;;;;;398.73;107.68;;;0.70;99.90;;;;;;5048195;28;20390;-79
2021/12/15 06:04:07;;;;;;;509.15;113.03;;;0.70;99.90;;;;;;5049134;28;20368;-77
2021/12/15 06:06:34;;;;;;;424.67;106.13;;;0.70;99.90;;;;;;5047941;28;20028;-77
2021/12/15 06:09:01;;;;;;;444.42;104.65;;;0.70;99.90;;;;;;5047868;28;20029;-77
2021/12/15 06:11:27;;;;;;;268.70;86.28;;;0.70;99.90;;;;;;5092513;27;20034;-77
2021/12/15 06:13:54;;;;;;;449.98;110.13;;;0.70;99.90;;;;;;5152625;27;20026;-77
2021/12/15 06:16:21;;;;;;;518.67;123.13;;;0.70;99.90;;;;;;5152649;27;20050;-76
2021/12/15 06:18:48;;;;;;;472.70;118.28;;;0.80;99.90;;;;;;5125944;27;20029;-77
2021/12/15 06:21:15;;;;;;;474.42;116.07;;;0.70;99.90;;;;;;5042644;28;20029;-77
2021/12/15 06:23:41;;;;;;;414.15;112.22;;;0.70;99.90;;;;;;5045086;27;20100;-77
2021/12/15 06:26:08;;;;;;;560.72;131.18;;;0.70;99.90;;;;;;5049566;27;20387;-76
2021/12/15 06:28:35;;;;;;;527.58;126.03;;;0.70;99.90;;;;;;5048388;27;20124;-77
2021/12/15 06:31:03;;;;;;;367.92;106.40;;;0.70;99.90;;;;;;5048581;27;20023;-77
2021/12/15 06:33:29;;;;;;;545.78;126.78;;;0.70;99.90;;;;;;5047589;27;20047;-79
2021/12/15 06:35:58;;;;;;;485.98;118.78;;;0.70;99.90;;;;;;5049652;27;20013;-77
2021/12/15 06:38:28;;;;;;;595.92;144.23;;;0.70;99.90;;;;;;5047365;27;20113;-76
2021/12/15 06:40:55;;;;;;;497.73;136.38;;;0.70;99.90;;;;;;5048135;28;20025;-76
2021/12/15 06:43:21;;;;;;;824.45;279.63;;;0.70;99.90;;;;;;5066917;27;20032;-77
2021/12/15 06:59:21;;;;;;;680.92;245.13;;;0.70;99.90;;;;;;5035005;28;20064;-77
2021/12/15 07:01:50;;;;;;;740.85;242.00;;;0.70;99.90;;;;;;5032185;28;20029;-77
2021/12/15 07:04:16;;;;;;;626.15;161.60;;;0.80;99.90;;;;;;5037616;28;20014;-77
2021/12/15 07:06:41;;;;;;;857.03;288.23;;;0.80;99.90;;;;;;5031583;28;20037;-77
2021/12/15 07:09:07;;;;;;;834.90;242.65;;;0.80;99.90;;;;;;5034950;28;20018;-77
2021/12/15 07:11:33;;;;;;;943.00;322.50;;;0.80;99.90;;;;;;5029946;28;20029;-77
2021/12/15 07:13:58;;;;;;;1040.65;404.50;;;0.80;99.90;;;;;;5032552;28;20030;-77
2021/12/15 07:16:25;;;;;;;752.78;299.52;;;0.80;99.90;;;;;;5028810;28;20428;-77
2021/12/15 07:21:22;;;;;;;547.30;159.90;;;0.80;99.90;;;;;;5037418;28;20048;-77
2021/12/15 07:23:50;;;;;;;616.75;228.52;;;0.80;99.90;;;;;;5040144;28;20031;-77
2021/12/15 07:26:16;;;;;;;460.48;133.98;;;0.80;99.90;;;;;;5031441;28;20017;-77
2021/12/15 07:28:42;;;;;;;572.50;152.90;;;0.80;99.90;;;;;;5037291;28;20025;-77
2021/12/15 07:31:09;;;;;;;516.95;132.25;;;0.80;99.90;;;;;;5042731;27;20026;-77
2021/12/15 07:33:35;;;;;;;493.13;122.85;;;0.90;99.90;;;;;;5036844;28;20041;-77
2021/12/15 07:36:01;;;;;;;259.30;92.03;;;0.80;99.90;;;;;;5034078;28;20025;-77
2021/12/15 07:38:27;;;;;;;589.03;137.15;;;0.90;99.90;;;;;;5033847;28;20093;-77
2021/12/15 07:40:53;;;;;;;435.17;114.10;;;0.90;99.90;;;;;;5037252;28;20104;-77
2021/12/15 07:43:24;;;;;;;650.22;142.70;;;0.90;99.90;;;;;;5035604;28;20044;-77
2021/12/15 07:46:02;;;;;;;473.42;117.55;;;0.90;99.90;;;;;;5036018;28;20026;-76
2021/12/15 07:48:34;;;;;;;329.73;105.18;;;0.80;99.90;;;;;;5036507;28;20053;-78
2021/12/15 07:51:01;;;;;;;676.72;193.98;;;0.90;99.90;;;;;;5036409;28;20475;-77
2021/12/15 07:53:28;;;;;;;492.52;135.80;;;0.90;99.90;;;;;;5041189;28;20459;-77
2021/12/15 07:55:54;;;;;;;533.03;136.57;;;0.90;99.90;;;;;;5037825;28;20090;-77
2021/12/15 07:58:22;;;;;;;437.05;109.90;;;0.90;99.90;;;;;;5034211;28;20051;-77
2021/12/15 08:00:49;;;;;;;425.52;111.00;;;0.90;99.90;;;;;;5056860;28;20479;-77
2021/12/15 08:03:16;;;;;;;311.75;92.53;;;1.00;99.90;;;;;;5033596;28;20026;-76
2021/12/15 08:05:48;;;;;;;316.67;96.32;;;1.00;99.90;;;;;;5051379;28;20028;-77
2021/12/15 08:08:14;;;;;;;528.45;133.43;;;1.00;99.90;;;;;;5044504;28;20467;-77
2021/12/15 08:10:42;;;;;;;230.07;85.45;;;1.10;99.90;;;;;;5032655;28;20037;-77
2021/12/15 08:13:08;;;;;;;527.55;133.77;;;1.10;99.90;;;;;;5032656;28;20078;-77
2021/12/15 08:15:34;;;;;;;336.50;100.57;;;1.20;99.90;;;;;;5037869;28;20033;-76
2021/12/15 08:17:59;;;;;;;347.95;102.88;;;1.20;99.90;;;;;;5052450;28;20037;-77
2021/12/15 08:20:29;;;;;;;279.20;95.43;;;1.20;99.90;;;;;;5050264;28;20406;-76
2021/12/15 08:22:55;;;;;;;287.15;92.95;;;1.20;99.90;;;;;;5050054;28;20026;-77
2021/12/15 08:25:21;;;;;;;404.88;104.93;;;1.20;99.90;;;;;;5100649;27;20027;-77
2021/12/15 08:27:49;;;;;;;382.52;103.28;;;1.20;99.90;;;;;;5051920;28;20505;-77
2021/12/15 08:30:20;;;;;;;334.48;112.18;;;1.30;99.90;;;;;;5050844;28;20025;-77
2021/12/15 08:32:53;;;;;;;376.67;130.00;;;1.30;99.90;;;;;;5050942;28;20386;-77
2021/12/15 08:35:22;;;;;;;382.52;125.38;;;1.30;99.90;;;;;;5052165;28;20025;-77
2021/12/15 08:37:47;;;;;;;436.48;117.75;;;1.30;99.90;;;;;;5052102;28;20036;-76
2021/12/15 08:40:15;;;;;;;434.65;116.03;;;1.30;99.90;;;;;;5052045;28;20029;-77
2021/12/15 08:42:41;;;;;;;642.78;169.80;;;1.30;99.90;;;;;;5052040;28;20013;-77
2021/12/15 08:45:07;;;;;;;295.83;102.95;;;1.30;99.90;;;;;;5050778;28;20057;-77
2021/12/15 08:47:34;;;;;;;496.13;127.93;;;1.30;99.90;;;;;;5048496;27;20036;-77
2021/12/15 08:49:59;;;;;;;415.98;115.65;;;1.30;99.90;;;;;;5048678;28;20021;-77
2021/12/15 08:52:25;;;;;;;394.20;109.40;;;1.30;99.90;;;;;;5048922;28;20087;-77
2021/12/15 08:54:51;;;;;;;408.77;113.53;;;1.30;99.90;;;;;;5043693;28;20566;-77
2021/12/15 08:57:17;;;;;;;355.75;108.35;;;1.40;99.90;;;;;;5037945;28;20033;-76
2021/12/15 08:59:43;;;;;;;384.65;111.22;;;1.30;99.90;;;;;;5045537;28;20036;-77
2021/12/15 09:02:08;;;;;;;375.17;110.57;;;1.30;99.90;;;;;;5030608;28;20068;-77
2021/12/15 09:04:34;;;;;;;255.75;98.30;;;1.30;99.90;;;;;;5030580;28;20025;-77
2021/12/15 09:07:00;;;;;;;268.88;100.68;;;1.40;99.90;;;;;;5030632;28;20044;-77
2021/12/15 09:09:27;;;;;;;273.75;95.05;;;1.40;99.90;;;;;;5050322;27;20029;-76
2021/12/15 09:11:53;;;;;;;323.58;104.35;;;1.40;99.90;;;;;;5051735;28;20522;-77
2021/12/15 09:14:20;;;;;;;372.90;111.80;;;1.50;99.90;;;;;;5050318;28;20048;-77
2021/12/15 09:16:49;;;;;;;502.58;134.95;;;1.60;99.90;;;;;;5051525;28;20029;-77
2021/12/15 09:19:15;;;;;;;461.13;130.93;;;1.50;99.90;;;;;;5051425;28;20378;-76
2021/12/15 09:21:42;;;;;;;498.75;139.60;;;1.60;99.90;;;;;;5051369;28;20571;-77
2021/12/15 09:24:10;;;;;;;430.25;118.53;;;1.60;99.90;;;;;;5030279;28;20108;-77
2021/12/15 09:26:36;;;;;;;426.08;123.50;;;1.60;99.90;;;;;;5031514;28;20090;-76
2021/12/15 09:29:03;;;;;;;311.52;103.50;;;1.60;99.90;;;;;;5031483;28;20085;-76
2021/12/15 09:31:29;;;;;;;339.42;108.47;;;1.70;99.90;;;;;;5031395;28;20040;-76
2021/12/15 09:33:56;;;;;;;416.95;124.13;;;1.70;99.90;;;;;;5031293;28;20026;-76
2021/12/15 09:36:25;;;;;;;466.98;122.43;;;1.70;99.90;;;;;;5030016;28;20386;-76
2021/12/15 09:38:56;;;;;;;370.05;105.43;;;1.70;99.90;;;;;;5031312;28;20037;-76
2021/12/15 09:41:23;;;;;;;416.58;110.10;;;1.70;99.90;;;;;;5031233;28;20030;-77
2021/12/15 09:43:52;;;;;;;324.85;102.10;;;1.60;99.90;;;;;;5030065;28;20022;-77
2021/12/15 09:46:39;;;;;;;296.55;101.45;;;1.70;99.90;;;;;;5031210;28;20057;-77
2021/12/15 09:57:31;;;;;;;330.17;103.00;;;1.70;99.90;;;;;;5031171;28;20423;-78
2021/12/15 10:05:29;;;;;;;269.67;93.68;;;1.80;99.90;;;;;;5031190;28;20029;-77
2021/12/15 10:19:30;;;;;;;382.92;109.70;;;1.90;99.90;;;;;;5030714;28;20082;-76
2021/12/15 10:22:26;;;;;;;389.10;116.32;;;1.90;99.90;;;;;;5030723;28;20021;-76
2021/12/15 10:24:55;;;;;;;435.13;115.57;;;1.90;99.90;;;;;;5030600;28;20021;-76
2021/12/15 10:27:47;;;;;;;380.85;120.95;;;1.90;99.90;;;;;;5030646;28;20049;-77
2021/12/15 10:30:25;;;;;;;631.95;157.27;;;1.90;99.90;;;;;;5028993;28;20033;-77
2021/12/15 10:33:02;;;;;;;438.25;122.78;;;1.90;99.90;;;;;;5030531;28;20021;-76
2021/12/15 10:35:43;;;;;;;487.02;129.15;;;2.00;99.90;;;;;;5030462;28;20028;-76
2021/12/15 10:38:26;;;;;;;490.55;123.35;;;2.00;99.90;;;;;;5029042;28;20574;-76
2021/12/15 10:40:52;;;;;;;;;;;2.00;99.90;;;;;;5029578;28;20033;-76
2021/12/15 10:43:19;;;;;;;570.28;153.90;;;1.90;99.90;;;;;;5043393;28;19936;-77
2021/12/15 10:45:53;;;;;;;465.20;127.82;;;2.00;99.90;;;;;;5050233;28;20024;-76
2021/12/15 10:48:35;;;;;;;447.85;121.65;;;1.90;99.90;;;;;;5050247;28;20074;-76
2021/12/15 10:51:23;;;;;;;512.63;140.90;;;2.00;99.90;;;;;;5048952;28;20087;-77
2021/12/15 10:53:50;;;;;;;432.45;129.10;;;2.00;99.90;;;;;;5042377;27;20279;-76
2021/12/15 10:56:22;;;;;;;584.03;147.65;;;2.00;99.90;;;;;;5030231;28;20386;-76
2021/12/15 10:58:58;;;;;;;550.60;133.10;;;2.00;99.90;;;;;;5048769;28;20096;-76
2021/12/15 11:01:46;;;;;;;411.92;112.70;;;2.00;99.90;;;;;;5048757;27;20017;-76
2021/12/15 11:04:32;;;;;;;531.03;123.32;;;2.10;99.90;;;;;;5046307;28;20025;-76
2021/12/15 11:07:01;;;;;;;394.10;97.80;;;2.10;99.90;;;;;;5028879;28;20471;-76
2021/12/15 11:09:33;;;;;;;434.85;106.85;;;2.10;99.90;;;;;;5029919;28;20474;-76
2021/12/15 11:12:03;;;;;;;554.70;127.75;;;2.10;99.90;;;;;;5029943;28;20033;-76
2021/12/15 11:14:33;;;;;;;498.52;116.40;;;2.10;99.90;;;;;;5028709;27;20033;-76
2021/12/15 11:17:23;;;;;;;383.95;105.38;;;2.10;99.90;;;;;;5030257;28;20033;-76
2021/12/15 11:19:53;;;;;;;575.88;123.57;;;2.20;99.90;;;;;;5041051;28;20060;-76
2021/12/15 11:22:37;;;;;;;339.20;95.25;;;2.20;99.90;;;;;;5049725;28;20387;-76
2021/12/15 11:25:29;;;;;;;302.40;90.43;;;2.20;99.90;;;;;;5048390;28;20492;-76
2021/12/15 11:28:06;;;;;;;572.33;117.20;;;2.20;99.90;;;;;;5043219;28;20041;-76
2021/12/15 11:30:35;;;;;;;275.75;79.40;;;2.20;99.90;;;;;;5049619;28;20025;-76
2021/12/15 11:33:15;;;;;;;323.58;86.55;;;2.20;99.90;;;;;;5048189;28;20029;-76
2021/12/15 11:36:01;;;;;;;276.42;82.03;;;2.20;99.90;;;;;;5048198;28;20044;-76
2021/12/15 11:38:36;;;;;;;225.68;72.90;;;2.30;99.90;;;;;;5048220;28;20550;-76
2021/12/15 11:41:31;;;;;;;282.88;81.25;;;2.30;99.90;;;;;;5049397;28;20022;-76
2021/12/15 11:43:57;;;;;;;386.83;103.50;;;2.30;99.90;;;;;;5046435;27;20074;-77
2021/12/15 11:46:34;;;;;;;456.25;119.60;;;2.40;99.90;;;;;;5049465;28;20102;-77
2021/12/15 11:49:08;;;;;;;403.02;109.82;;;2.40;99.90;;;;;;5048143;28;20145;-77
2021/12/15 11:51:42;;;;;;;257.58;83.65;;;2.40;99.90;;;;;;5049431;28;20024;-76
2021/12/15 11:54:24;;;;;;;604.95;136.90;;;2.40;99.90;;;;;;5048018;28;20169;-76
2021/12/15 11:57:04;;;;;;;591.92;133.07;;;2.40;99.90;;;;;;5048116;28;20036;-76
2021/12/15 11:59:36;;;;;;;500.80;111.00;;;2.50;99.90;;;;;;5049298;28;20430;-76
2021/12/15 12:02:24;;;;;;;523.00;124.30;;;2.50;99.90;;;;;;5047959;27;20017;-76
2021/12/15 12:04:57;;;;;;;654.53;144.48;;;2.50;99.90;;;;;;5047918;28;20025;-76
2021/12/15 12:07:30;;;;;;;515.00;114.13;;;2.50;99.90;;;;;;5048018;28;20040;-76
2021/12/15 12:09:58;;;;;;;332.02;92.97;;;2.50;99.90;;;;;;5049103;28;20426;-76
2021/12/15 12:12:30;;;;;;;467.00;111.70;;;2.50;99.90;;;;;;5049047;28;20363;-76
2021/12/15 12:14:56;;;;;;;178.00;69.38;;;2.50;99.90;;;;;;5047880;27;20017;-76
2021/12/15 12:17:22;;;;;;;344.42;84.63;;;2.60;99.90;;;;;;5047685;27;20036;-76
2021/12/15 12:19:56;;;;;;;422.42;94.32;;;2.60;99.90;;;;;;5048048;28;20029;-76
2021/12/15 12:22:25;;;;;;;504.42;123.43;;;2.60;99.90;;;;;;5049043;28;20474;-76
2021/12/15 12:24:54;;;;;;;291.40;93.78;;;2.50;99.90;;;;;;5048905;28;20527;-76
2021/12/15 12:27:23;;;;;;;629.08;130.65;;;2.60;99.90;;;;;;5052098;28;20032;-76
2021/12/15 12:29:51;;;;;;;608.60;128.00;;;2.60;99.90;;;;;;5052314;28;20021;-76
2021/12/15 12:32:17;;;;;;;426.95;95.03;;;2.60;99.90;;;;;;5052241;28;20025;-76
2021/12/15 12:34:43;;;;;;;529.42;114.43;;;2.60;99.90;;;;;;5050730;27;20031;-76
2021/12/15 12:37:14;;;;;;;562.40;129.48;;;2.50;99.90;;;;;;5050750;28;20375;-77
2021/12/15 12:39:42;;;;;;;686.83;177.02;;;2.50;99.90;;;;;;5050840;27;20047;-76
2021/12/15 12:42:08;;;;;;;549.72;141.00;;;2.50;99.90;;;;;;5052141;28;20040;-76
2021/12/15 12:44:38;;;;;;;674.00;153.32;;;2.50;99.90;;;;;;5050841;28;20059;-76
2021/12/15 12:47:20;;;;;;;494.88;115.40;;;2.50;99.90;;;;;;5050779;28;20025;-76
2021/12/15 12:50:12;;;;;;;572.22;129.93;;;2.50;99.90;;;;;;5051956;28;20029;-76
2021/12/15 13:01:17;;;;;;;630.78;141.95;;;2.50;99.90;;;;;;5051701;28;20059;-76
2021/12/15 13:03:52;;;;;;;648.93;146.00;;;2.50;99.90;;;;;;5050531;28;20025;-76
2021/12/15 13:06:28;;;;;;;647.97;140.05;;;2.50;99.90;;;;;;5050459;28;20066;-76
2021/12/15 13:09:07;;;;;;;618.95;136.05;;;2.40;99.90;;;;;;5046919;28;20427;-76
2021/12/15 13:11:36;;;;;;;634.85;146.50;;;2.40;99.90;;;;;;5050118;28;20541;-76
2021/12/15 13:14:05;;;;;;;617.92;135.07;;;2.50;99.90;;;;;;5050224;28;20024;-76
2021/12/15 13:16:43;;;;;;;607.10;144.32;;;2.40;99.90;;;;;;5050198;28;20033;-76
2021/12/15 13:19:21;;;;;;;594.75;142.80;;;2.40;99.90;;;;;;5050201;28;20037;-76
2021/12/15 13:30:46;;;;;;;469.00;110.32;;;2.50;99.90;;;;;;5051574;28;20059;-76
2021/12/15 13:33:27;;;;;;;426.23;106.47;;;2.50;99.90;;;;;;5039134;28;20121;-76
2021/12/15 13:36:19;;;;;;;448.73;116.00;;;2.50;99.90;;;;;;5035751;28;20293;-74
2021/12/15 13:38:54;;;;;;;393.15;111.15;;;2.60;99.90;;;;;;5036506;28;20046;-74
2021/12/15 13:41:38;;;;;;;775.53;180.07;;;2.60;99.90;;;;;;5037720;28;20431;-74
2021/12/15 13:44:23;;;;;;;625.80;143.07;;;2.60;99.90;;;;;;5033987;28;20025;-74
2021/12/15 13:46:55;;;;;;;377.73;103.32;;;2.60;99.90;;;;;;5039271;28;20605;-74
2021/12/15 13:49:39;;;;;;;459.10;110.85;;;2.60;99.90;;;;;;5036156;28;20394;-74
2021/12/15 13:52:16;;;;;;;568.75;122.18;;;2.60;99.90;;;;;;5035574;28;20108;-74
2021/12/15 13:54:41;;;;;;;642.30;143.52;;;2.50;99.90;;;;;;5034938;28;20029;-74
2021/12/15 13:57:13;;;;;;;491.58;128.95;;;2.50;99.90;;;;;;5035431;28;20041;-74
2021/12/15 13:59:40;;;;;;;508.77;135.77;;;2.50;99.90;;;;;;5030486;28;20029;-74
2021/12/15 14:02:17;;;;;;;612.28;165.50;;;2.50;99.90;;;;;;5037021;28;20032;-74
2021/12/15 14:04:54;;;;;;;912.25;224.15;;;2.50;99.90;;;;;;5034888;28;20033;-74
2021/12/15 14:07:33;;;;;;;936.65;242.52;;;2.50;99.90;;;;;;5034023;28;20064;-74